Terminal Aerodrome Forecast
Issued by NWS

Home | Current Version | Previous Version | Text Only | Print | Product List | Glossary On
Versions: 1 2 3 4 5 6 7 8 9 10 11 12 13 14 15 16 17 18 19
000
FTUS43 KILX 041747
TAFDEC
TAF
KDEC 041747Z 0418/0518 23012KT P6SM SCT050 BKN120
     FM042100 22010KT P6SM VCTS SCT050CB
     FM050200 VRB05KT 6SM -RA BR VCTS BKN050CB
     FM050900 16005KT P6SM BKN050
     FM051400 20008KT P6SM SCT050=

USA.gov is the U.S. government's official web portal to all federal, state and local government web resources and services.